sensor_id;sensor_type;location;lat;lon;timestamp;pressure;altitude;pressure_sealevel;temperature;humidity
50484;BME280;36409;52.168;20.878;2024-03-23T00:54:00;99662.11;;;8.10;74.93
50484;BME280;36409;52.168;20.878;2024-03-23T00:56:32;99651.75;;;8.08;75.01
50484;BME280;36409;52.168;20.878;2024-03-23T00:59:03;99643.95;;;8.07;74.93
50484;BME280;36409;52.168;20.878;2024-03-23T01:01:35;99642.23;;;8.06;75.13
50484;BME280;36409;52.168;20.878;2024-03-23T01:04:07;99646.59;;;8.05;75.35
50484;BME280;36409;52.168;20.878;2024-03-23T01:06:38;99644.88;;;8.04;75.19
50484;BME280;36409;52.168;20.878;2024-03-23T01:09:10;99640.55;;;8.03;75.31
50484;BME280;36409;52.168;20.878;2024-03-23T01:11:42;99644.91;;;8.02;75.68
50484;BME280;36409;52.168;20.878;2024-03-23T01:14:14;99640.59;;;8.01;75.89
50484;BME280;36409;52.168;20.878;2024-03-23T01:16:46;99632.79;;;8.01;75.81
50484;BME280;36409;52.168;20.878;2024-03-23T01:19:17;99627.59;;;8.01;75.59
50484;BME280;36409;52.168;20.878;2024-03-23T01:21:49;99631.06;;;8.00;75.60
50484;BME280;36409;52.168;20.878;2024-03-23T01:24:20;99622.43;;;7.98;75.81
50484;BME280;36409;52.168;20.878;2024-03-23T01:26:52;99624.19;;;7.98;76.11
50484;BME280;36409;52.168;20.878;2024-03-23T01:29:23;99615.51;;;7.99;75.77
50484;BME280;36409;52.168;20.878;2024-03-23T01:31:55;99622.43;;;7.98;76.22
50484;BME280;36409;52.168;20.878;2024-03-23T01:34:26;99618.98;;;7.98;75.91
50484;BME280;36409;52.168;20.878;2024-03-23T01:36:59;99626.78;;;7.98;76.13
50484;BME280;36409;52.168;20.878;2024-03-23T01:39:30;99624.19;;;7.98;75.77
50484;BME280;36409;52.168;20.878;2024-03-23T01:42:02;99631.10;;;7.99;75.91
50484;BME280;36409;52.168;20.878;2024-03-23T01:44:34;99625.03;;;7.98;75.81
50484;BME280;36409;52.168;20.878;2024-03-23T01:47:05;99613.80;;;7.98;75.95
50484;BME280;36409;52.168;20.878;2024-03-23T01:49:37;99612.91;;;7.99;76.22
50484;BME280;36409;52.168;20.878;2024-03-23T01:52:09;99609.44;;;7.98;76.45
50484;BME280;36409;52.168;20.878;2024-03-23T01:54:41;99607.72;;;7.99;76.42
50484;BME280;36409;52.168;20.878;2024-03-23T01:57:17;99612.03;;;7.98;76.62
50484;BME280;36409;52.168;20.878;2024-03-23T01:59:50;99616.36;;;7.99;76.21
50484;BME280;36409;52.168;20.878;2024-03-23T02:02:25;99603.33;;;8.01;76.61
50484;BME280;36409;52.168;20.878;2024-03-23T02:04:57;99604.20;;;8.00;76.73
50484;BME280;36409;52.168;20.878;2024-03-23T02:07:29;99596.41;;;8.01;76.49
50484;BME280;36409;52.168;20.878;2024-03-23T02:10:01;99596.41;;;8.01;76.86
50484;BME280;36409;52.168;20.878;2024-03-23T02:12:33;99594.64;;;8.02;76.76
50484;BME280;36409;52.168;20.878;2024-03-23T02:15:05;99600.72;;;8.02;76.66
50484;BME280;36409;52.168;20.878;2024-03-23T02:17:39;99599.84;;;8.03;76.65
50484;BME280;36409;52.168;20.878;2024-03-23T02:20:13;99588.56;;;8.04;76.97
50484;BME280;36409;52.168;20.878;2024-03-23T02:22:44;99587.66;;;8.06;76.97
50484;BME280;36409;52.168;20.878;2024-03-23T02:25:16;99584.17;;;8.07;77.29
50484;BME280;36409;52.168;20.878;2024-03-23T02:27:47;99585.05;;;8.07;77.26
50484;BME280;36409;52.168;20.878;2024-03-23T02:30:19;99581.58;;;8.07;76.97
50484;BME280;36409;52.168;20.878;2024-03-23T02:32:51;99591.09;;;8.08;77.09
50484;BME280;36409;52.168;20.878;2024-03-23T02:35:22;99575.50;;;8.08;77.48
50484;BME280;36409;52.168;20.878;2024-03-23T02:37:54;99577.22;;;8.09;77.17
50484;BME280;36409;52.168;20.878;2024-03-23T02:40:27;99578.09;;;8.08;77.09
50484;BME280;36409;52.168;20.878;2024-03-23T02:42:59;99581.57;;;8.08;77.05
50484;BME280;36409;52.168;20.878;2024-03-23T02:45:30;99571.17;;;8.08;77.65
50484;BME280;36409;52.168;20.878;2024-03-23T02:48:03;99573.77;;;8.08;77.20
50484;BME280;36409;52.168;20.878;2024-03-23T02:50:35;99571.17;;;8.08;77.05
50484;BME280;36409;52.168;20.878;2024-03-23T02:53:07;99559.86;;;8.11;77.59
50484;BME280;36409;52.168;20.878;2024-03-23T02:55:39;99564.21;;;8.10;77.54
50484;BME280;36409;52.168;20.878;2024-03-23T02:58:11;99552.91;;;8.11;77.67
50484;BME280;36409;52.168;20.878;2024-03-23T03:00:42;99560.70;;;8.11;77.71
50484;BME280;36409;52.168;20.878;2024-03-23T03:03:14;99551.17;;;8.12;77.85
50484;BME280;36409;52.168;20.878;2024-03-23T03:05:45;99546.83;;;8.12;77.86
50484;BME280;36409;52.168;20.878;2024-03-23T03:08:17;99545.94;;;8.13;77.90
50484;BME280;36409;52.168;20.878;2024-03-23T03:10:48;99540.74;;;8.13;77.55
50484;BME280;36409;52.168;20.878;2024-03-23T03:13:20;99541.62;;;8.14;77.85
50484;BME280;36409;52.168;20.878;2024-03-23T03:15:51;99539.02;;;8.14;77.74
50484;BME280;36409;52.168;20.878;2024-03-23T03:18:23;99540.73;;;8.15;78.18
50484;BME280;36409;52.168;20.878;2024-03-23T03:20:57;99541.58;;;8.15;78.21
50484;BME280;36409;52.168;20.878;2024-03-23T03:23:28;99541.58;;;8.15;77.98
50484;BME280;36409;52.168;20.878;2024-03-23T03:26:02;99546.81;;;8.14;78.39
50484;BME280;36409;52.168;20.878;2024-03-23T03:28:34;99546.78;;;8.15;78.18
50484;BME280;36409;52.168;20.878;2024-03-23T03:31:05;99544.18;;;8.15;78.35
50484;BME280;36409;52.168;20.878;2024-03-23T03:33:37;99548.50;;;8.16;77.69
50484;BME280;36409;52.168;20.878;2024-03-23T03:36:09;99551.09;;;8.16;78.02
50484;BME280;36409;52.168;20.878;2024-03-23T03:38:40;99549.38;;;8.15;78.00
50484;BME280;36409;52.168;20.878;2024-03-23T03:41:12;99549.38;;;8.15;77.93
50484;BME280;36409;52.168;20.878;2024-03-23T03:43:43;99545.94;;;8.15;78.35
50484;BME280;36409;52.168;20.878;2024-03-23T03:46:15;99553.70;;;8.16;78.57
50484;BME280;36409;52.168;20.878;2024-03-23T03:48:46;99546.78;;;8.15;78.73
50484;BME280;36409;52.168;20.878;2024-03-23T03:51:18;99535.50;;;8.16;78.34
50484;BME280;36409;52.168;20.878;2024-03-23T03:53:50;99537.26;;;8.16;78.29
50484;BME280;36409;52.168;20.878;2024-03-23T03:56:21;99534.66;;;8.16;78.54
50484;BME280;36409;52.168;20.878;2024-03-23T03:58:53;99531.14;;;8.17;78.65
50484;BME280;36409;52.168;20.878;2024-03-23T04:01:25;99531.14;;;8.17;78.30
50484;BME280;36409;52.168;20.878;2024-03-23T04:03:56;99529.42;;;8.17;78.97
50484;BME280;36409;52.168;20.878;2024-03-23T04:06:28;99520.75;;;8.17;78.94
50484;BME280;36409;52.168;20.878;2024-03-23T04:08:59;99529.42;;;8.17;78.24
50484;BME280;36409;52.168;20.878;2024-03-23T04:11:30;99521.63;;;8.17;78.92
50484;BME280;36409;52.168;20.878;2024-03-23T04:14:02;99520.73;;;8.18;78.41
50484;BME280;36409;52.168;20.878;2024-03-23T04:16:35;99526.82;;;8.17;78.81
50484;BME280;36409;52.168;20.878;2024-03-23T04:19:07;99523.34;;;8.17;78.53
50484;BME280;36409;52.168;20.878;2024-03-23T04:21:38;99513.82;;;8.17;78.81
50484;BME280;36409;52.168;20.878;2024-03-23T04:24:10;99509.50;;;8.16;78.71
50484;BME280;36409;52.168;20.878;2024-03-23T04:26:44;99506.02;;;8.17;79.28
50484;BME280;36409;52.168;20.878;2024-03-23T04:29:16;99497.34;;;8.17;79.14
50484;BME280;36409;52.168;20.878;2024-03-23T04:31:47;99493.03;;;8.17;79.01
50484;BME280;36409;52.168;20.878;2024-03-23T04:34:19;99500.83;;;8.17;78.84
50484;BME280;36409;52.168;20.878;2024-03-23T04:36:50;99495.63;;;8.17;78.79
50484;BME280;36409;52.168;20.878;2024-03-23T04:39:21;99495.63;;;8.17;79.04
50484;BME280;36409;52.168;20.878;2024-03-23T04:41:53;99495.63;;;8.17;78.74
50484;BME280;36409;52.168;20.878;2024-03-23T04:44:24;99499.94;;;8.18;79.12
50484;BME280;36409;52.168;20.878;2024-03-23T04:47:05;99489.55;;;8.18;79.45
50484;BME280;36409;52.168;20.878;2024-03-23T04:49:39;99480.03;;;8.17;79.29
50484;BME280;36409;52.168;20.878;2024-03-23T04:52:11;99480.03;;;8.17;79.39
50484;BME280;36409;52.168;20.878;2024-03-23T04:54:43;99473.06;;;8.19;79.57
50484;BME280;36409;52.168;20.878;2024-03-23T04:57:15;99468.70;;;8.20;79.49
50484;BME280;36409;52.168;20.878;2024-03-23T04:59:50;99472.18;;;8.21;79.67
50484;BME280;36409;52.168;20.878;2024-03-23T05:02:21;99473.02;;;8.21;79.52
50484;BME280;36409;52.168;20.878;2024-03-23T05:04:53;99480.78;;;8.23;79.59
50484;BME280;36409;52.168;20.878;2024-03-23T05:07:24;99473.86;;;8.23;79.16
50484;BME280;36409;52.168;20.878;2024-03-23T05:09:56;99480.77;;;8.24;79.55
50484;BME280;36409;52.168;20.878;2024-03-23T05:12:27;99479.02;;;8.25;79.60
50484;BME280;36409;52.168;20.878;2024-03-23T05:14:59;99480.77;;;8.24;79.13
50484;BME280;36409;52.168;20.878;2024-03-23T05:17:30;99476.42;;;8.25;79.12
50484;BME280;36409;52.168;20.878;2024-03-23T05:20:03;99472.94;;;8.26;79.56
50484;BME280;36409;52.168;20.878;2024-03-23T05:22:36;99466.84;;;8.27;79.12
50484;BME280;36409;52.168;20.878;2024-03-23T05:25:07;99464.20;;;8.28;79.06
50484;BME280;36409;52.168;20.878;2024-03-23T05:27:39;99468.52;;;8.31;79.87
50484;BME280;36409;52.168;20.878;2024-03-23T05:30:12;99465.92;;;8.31;79.27
50484;BME280;36409;52.168;20.878;2024-03-23T05:32:43;99471.12;;;8.31;79.14
50484;BME280;36409;52.168;20.878;2024-03-23T05:35:15;99474.56;;;8.31;79.88
50484;BME280;36409;52.168;20.878;2024-03-23T05:37:46;99463.31;;;8.31;79.88
50484;BME280;36409;52.168;20.878;2024-03-23T05:40:17;99458.12;;;8.31;79.60
50484;BME280;36409;52.168;20.878;2024-03-23T05:42:49;99459.84;;;8.32;80.08
50484;BME280;36409;52.168;20.878;2024-03-23T05:45:22;99469.34;;;8.33;79.76
50484;BME280;36409;52.168;20.878;2024-03-23T05:47:54;99458.08;;;8.32;79.94
50484;BME280;36409;52.168;20.878;2024-03-23T05:50:27;99458.95;;;8.33;80.00
50484;BME280;36409;52.168;20.878;2024-03-23T05:52:58;99449.39;;;8.33;79.73
50484;BME280;36409;52.168;20.878;2024-03-23T05:55:30;99455.42;;;8.35;79.57
50484;BME280;36409;52.168;20.878;2024-03-23T05:58:03;99451.95;;;8.35;80.07
50484;BME280;36409;52.168;20.878;2024-03-23T06:00:36;99440.66;;;8.36;79.69
50484;BME280;36409;52.168;20.878;2024-03-23T06:03:07;99436.30;;;8.38;80.17
50484;BME280;36409;52.168;20.878;2024-03-23T06:05:39;99436.25;;;8.40;80.06
50484;BME280;36409;52.168;20.878;2024-03-23T06:08:12;99436.20;;;8.43;79.41
50484;BME280;36409;52.168;20.878;2024-03-23T06:10:46;99438.80;;;8.43;80.16
50484;BME280;36409;52.168;20.878;2024-03-23T06:13:18;99447.44;;;8.45;80.20
50484;BME280;36409;52.168;20.878;2024-03-23T06:15:49;99448.28;;;8.45;80.13
50484;BME280;36409;52.168;20.878;2024-03-23T06:18:21;99436.98;;;8.46;80.10
50484;BME280;36409;52.168;20.878;2024-03-23T06:20:53;99439.61;;;8.48;79.79
50484;BME280;36409;52.168;20.878;2024-03-23T06:23:24;99431.71;;;8.53;80.19
50484;BME280;36409;52.168;20.878;2024-03-23T06:25:57;99436.87;;;8.54;79.91
50484;BME280;36409;52.168;20.878;2024-03-23T06:28:28;99440.30;;;8.56;79.92
50484;BME280;36409;52.168;20.878;2024-03-23T06:31:03;99435.05;;;8.58;80.23
50484;BME280;36409;52.168;20.878;2024-03-23T06:33:36;99435.05;;;8.58;80.36
50484;BME280;36409;52.168;20.878;2024-03-23T06:36:10;99440.26;;;8.58;80.55
50484;BME280;36409;52.168;20.878;2024-03-23T06:38:41;99435.05;;;8.58;80.32
50484;BME280;36409;52.168;20.878;2024-03-23T06:41:13;99424.66;;;8.58;80.30
50484;BME280;36409;52.168;20.878;2024-03-23T06:43:45;99421.20;;;8.57;80.29
50484;BME280;36409;52.168;20.878;2024-03-23T06:46:16;99415.13;;;8.58;79.98
50484;BME280;36409;52.168;20.878;2024-03-23T06:48:47;99403.83;;;8.59;79.99
50484;BME280;36409;52.168;20.878;2024-03-23T06:51:19;99412.48;;;8.60;80.27
50484;BME280;36409;52.168;20.878;2024-03-23T06:53:54;99406.34;;;8.62;80.13
50484;BME280;36409;52.168;20.878;2024-03-23T06:56:26;99409.82;;;8.63;80.38
50484;BME280;36409;52.168;20.878;2024-03-23T06:58:58;99400.23;;;8.65;79.91
50484;BME280;36409;52.168;20.878;2024-03-23T07:01:30;99400.23;;;8.65;79.89
50484;BME280;36409;52.168;20.878;2024-03-23T07:04:08;99408.00;;;8.67;80.51
50484;BME280;36409;52.168;20.878;2024-03-23T07:06:45;99403.64;;;8.67;80.52
50484;BME280;36409;52.168;20.878;2024-03-23T07:09:17;99408.89;;;8.65;80.27
50484;BME280;36409;52.168;20.878;2024-03-23T07:11:50;99405.45;;;8.65;80.53
50484;BME280;36409;52.168;20.878;2024-03-23T07:14:21;99400.23;;;8.65;81.07
50484;BME280;36409;52.168;20.878;2024-03-23T07:16:53;99401.04;;;8.67;80.19
50484;BME280;36409;52.168;20.878;2024-03-23T07:19:25;99392.39;;;8.67;80.27
50484;BME280;36409;52.168;20.878;2024-03-23T07:21:57;99393.22;;;8.69;80.36
50484;BME280;36409;52.168;20.878;2024-03-23T07:24:28;99387.91;;;8.73;80.09
50484;BME280;36409;52.168;20.878;2024-03-23T07:27:01;99391.30;;;8.77;80.21
50484;BME280;36409;52.168;20.878;2024-03-23T07:29:36;99391.23;;;8.80;80.09
50484;BME280;36409;52.168;20.878;2024-03-23T07:32:08;99391.23;;;8.80;80.71
50484;BME280;36409;52.168;20.878;2024-03-23T07:34:41;99386.05;;;8.78;80.29
50484;BME280;36409;52.168;20.878;2024-03-23T07:37:14;99381.77;;;8.76;80.12
50484;BME280;36409;52.168;20.878;2024-03-23T07:39:46;99380.84;;;8.78;80.91
50484;BME280;36409;52.168;20.878;2024-03-23T07:42:22;99373.86;;;8.80;80.64
50484;BME280;36409;52.168;20.878;2024-03-23T07:44:56;99380.72;;;8.85;80.68
50484;BME280;36409;52.168;20.878;2024-03-23T07:47:28;99379.78;;;8.87;80.81
50484;BME280;36409;52.168;20.878;2024-03-23T07:50:01;99367.55;;;8.91;81.15
50484;BME280;36409;52.168;20.878;2024-03-23T07:52:34;99362.23;;;8.95;80.93
50484;BME280;36409;52.168;20.878;2024-03-23T07:55:07;99361.23;;;9.01;81.11
50484;BME280;36409;52.168;20.878;2024-03-23T07:57:38;99351.53;;;9.08;80.96
50484;BME280;36409;52.168;20.878;2024-03-23T08:00:12;99348.69;;;9.19;80.32
50484;BME280;36409;52.168;20.878;2024-03-23T08:02:44;99344.95;;;9.29;80.99
50484;BME280;36409;52.168;20.878;2024-03-23T08:05:16;99349.98;;;9.37;81.09
50484;BME280;36409;52.168;20.878;2024-03-23T08:07:51;99346.31;;;9.44;81.34
50484;BME280;36409;52.168;20.878;2024-03-23T08:10:23;99341.75;;;9.52;81.18
50484;BME280;36409;52.168;20.878;2024-03-23T08:12:55;99337.23;;;9.59;80.82
50484;BME280;36409;52.168;20.878;2024-03-23T08:15:26;99338.67;;;9.71;80.38
50484;BME280;36409;52.168;20.878;2024-03-23T08:17:58;99331.63;;;9.74;80.45
50484;BME280;36409;52.168;20.878;2024-03-23T08:20:30;99330.80;;;9.72;80.22
50484;BME280;36409;52.168;20.878;2024-03-23T08:23:03;99328.94;;;9.78;81.16
50484;BME280;36409;52.168;20.878;2024-03-23T08:25:34;99314.88;;;9.83;81.03
50484;BME280;36409;52.168;20.878;2024-03-23T08:28:06;99317.94;;;9.98;80.51
50484;BME280;36409;52.168;20.878;2024-03-23T08:30:38;99309.38;;;10.24;80.55
50484;BME280;36409;52.168;20.878;2024-03-23T08:33:10;99298.64;;;10.63;80.27
50484;BME280;36409;52.168;20.878;2024-03-23T08:35:41;99292.43;;;10.94;79.82
50484;BME280;36409;52.168;20.878;2024-03-23T08:38:13;99289.23;;;11.13;80.50
50484;BME280;36409;52.168;20.878;2024-03-23T08:40:45;99276.98;;;11.40;80.13
50484;BME280;36409;52.168;20.878;2024-03-23T08:43:16;99269.65;;;11.99;79.74
50484;BME280;36409;52.168;20.878;2024-03-23T08:45:48;99270.43;;;12.25;79.57
50484;BME280;36409;52.168;20.878;2024-03-23T08:48:20;99263.45;;;12.48;78.94
50484;BME280;36409;52.168;20.878;2024-03-23T08:51:01;99260.48;;;13.00;77.98
50484;BME280;36409;52.168;20.878;2024-03-23T08:53:37;99261.06;;;12.86;78.64
50484;BME280;36409;52.168;20.878;2024-03-23T08:56:10;99262.90;;;13.05;78.91
50484;BME280;36409;52.168;20.878;2024-03-23T08:58:41;99264.48;;;13.09;79.12
50484;BME280;36409;52.168;20.878;2024-03-23T09:01:14;99252.70;;;12.98;78.75
50484;BME280;36409;52.168;20.878;2024-03-23T09:03:45;99243.52;;;12.88;78.61
50484;BME280;36409;52.168;20.878;2024-03-23T09:06:17;99236.83;;;13.02;78.55
50484;BME280;36409;52.168;20.878;2024-03-23T09:08:49;99231.50;;;13.65;77.99
50484;BME280;36409;52.168;20.878;2024-03-23T09:11:20;99218.41;;;14.03;77.74
50484;BME280;36409;52.168;20.878;2024-03-23T09:13:52;99217.58;;;13.84;77.36
50484;BME280;36409;52.168;20.878;2024-03-23T09:16:23;99219.55;;;13.79;77.47
50484;BME280;36409;52.168;20.878;2024-03-23T09:18:57;99204.30;;;13.87;77.94
50484;BME280;36409;52.168;20.878;2024-03-23T09:21:28;99198.00;;;13.91;77.14
50484;BME280;36409;52.168;20.878;2024-03-23T09:24:00;99191.96;;;13.70;77.15
50484;BME280;36409;52.168;20.878;2024-03-23T09:26:31;99190.83;;;13.75;77.06
50484;BME280;36409;52.168;20.878;2024-03-23T09:29:05;99190.83;;;13.95;77.17
50484;BME280;36409;52.168;20.878;2024-03-23T09:31:46;99193.45;;;14.14;77.40
50484;BME280;36409;52.168;20.878;2024-03-23T09:34:17;99189.77;;;14.18;76.87
50484;BME280;36409;52.168;20.878;2024-03-23T09:36:52;99181.72;;;14.21;77.03
50484;BME280;36409;52.168;20.878;2024-03-23T09:39:24;99182.50;;;14.23;76.85
50484;BME280;36409;52.168;20.878;2024-03-23T09:41:59;99176.08;;;14.11;76.84
50484;BME280;36409;52.168;20.878;2024-03-23T09:44:30;99172.03;;;14.04;76.93
50484;BME280;36409;52.168;20.878;2024-03-23T09:47:04;99170.33;;;14.03;76.59
50484;BME280;36409;52.168;20.878;2024-03-23T09:49:36;99168.27;;;14.10;76.27
50484;BME280;36409;52.168;20.878;2024-03-23T09:52:08;99150.68;;;14.12;76.62
50484;BME280;36409;52.168;20.878;2024-03-23T09:54:40;99140.88;;;14.15;76.44
50484;BME280;36409;52.168;20.878;2024-03-23T09:57:12;99137.29;;;14.35;76.10
50484;BME280;36409;52.168;20.878;2024-03-23T09:59:56;99128.20;;;14.60;76.14
50484;BME280;36409;52.168;20.878;2024-03-23T10:02:28;99121.10;;;14.80;75.91
50484;BME280;36409;52.168;20.878;2024-03-23T10:05:04;99113.00;;;15.18;75.57
50484;BME280;36409;52.168;20.878;2024-03-23T10:07:37;99096.31;;;15.19;75.13
50484;BME280;36409;52.168;20.878;2024-03-23T10:10:13;99094.02;;;15.45;75.02
50484;BME280;36409;52.168;20.878;2024-03-23T10:12:47;99077.66;;;15.72;74.31
50484;BME280;36409;52.168;20.878;2024-03-23T10:15:23;99071.39;;;15.90;74.53
50484;BME280;36409;52.168;20.878;2024-03-23T10:17:55;99073.65;;;16.13;74.04
50484;BME280;36409;52.168;20.878;2024-03-23T10:20:26;99066.74;;;16.26;73.75
50484;BME280;36409;52.168;20.878;2024-03-23T10:22:57;99057.75;;;16.45;73.37
50484;BME280;36409;52.168;20.878;2024-03-23T10:25:29;99052.03;;;16.52;73.01
50484;BME280;36409;52.168;20.878;2024-03-23T10:28:02;99045.75;;;16.70;72.96
50484;BME280;36409;52.168;20.878;2024-03-23T10:30:39;99030.50;;;16.89;72.77
50484;BME280;36409;52.168;20.878;2024-03-23T10:33:14;99025.05;;;16.92;72.54
50484;BME280;36409;52.168;20.878;2024-03-23T10:35:48;99024.97;;;17.08;72.51
50484;BME280;36409;52.168;20.878;2024-03-23T10:38:20;99022.05;;;17.13;72.08
50484;BME280;36409;52.168;20.878;2024-03-23T10:40:52;99019.70;;;17.08;71.84
50484;BME280;36409;52.168;20.878;2024-03-23T10:43:26;99013.73;;;17.19;71.35
50484;BME280;36409;52.168;20.878;2024-03-23T10:45:59;99010.78;;;17.38;71.54
50484;BME280;36409;52.168;20.878;2024-03-23T10:48:30;99000.84;;;17.56;71.11
50484;BME280;36409;52.168;20.878;2024-03-23T10:53:44;98986.36;;;17.77;70.97
50484;BME280;36409;52.168;20.878;2024-03-23T10:56:17;98983.48;;;17.80;69.99
50484;BME280;36409;52.168;20.878;2024-03-23T10:58:50;98966.63;;;17.82;69.65
50484;BME280;36409;52.168;20.878;2024-03-23T11:01:23;98959.02;;;17.78;69.52
50484;BME280;36409;52.168;20.878;2024-03-23T11:03:58;98958.09;;;17.91;69.62
50484;BME280;36409;52.168;20.878;2024-03-23T11:06:41;98959.00;;;18.05;69.40
50484;BME280;36409;52.168;20.878;2024-03-23T11:09:41;98966.69;;;18.08;68.97
50484;BME280;36409;52.168;20.878;2024-03-23T11:12:33;98961.20;;;17.98;68.48
50484;BME280;36409;52.168;20.878;2024-03-23T11:15:12;98951.83;;;17.80;68.37
50484;BME280;36409;52.168;20.878;2024-03-23T11:18:04;98954.14;;;17.71;68.06
50484;BME280;36409;52.168;20.878;2024-03-23T11:20:41;98947.47;;;17.66;68.11
50484;BME280;36409;52.168;20.878;2024-03-23T11:23:28;98946.39;;;17.55;68.06
50484;BME280;36409;52.168;20.878;2024-03-23T11:25:59;98941.31;;;17.52;68.21
50484;BME280;36409;52.168;20.878;2024-03-23T11:28:44;98929.81;;;17.53;68.10
50484;BME280;36409;52.168;20.878;2024-03-23T11:31:30;98925.11;;;17.71;67.74
50484;BME280;36409;52.168;20.878;2024-03-23T11:34:38;98929.69;;;17.82;67.43
50484;BME280;36409;52.168;20.878;2024-03-23T11:38:06;98918.39;;;17.93;67.57
50484;BME280;36409;52.168;20.878;2024-03-23T11:44:00;98905.86;;;17.97;66.77
50484;BME280;36409;52.168;20.878;2024-03-23T11:46:55;98900.03;;;17.79;66.16
50484;BME280;36409;52.168;20.878;2024-03-23T11:49:52;98883.09;;;17.68;65.80
50484;BME280;36409;52.168;20.878;2024-03-23T11:52:39;98876.16;;;17.67;66.04
50484;BME280;36409;52.168;20.878;2024-03-23T11:55:18;98873.52;;;17.93;66.04
50484;BME280;36409;52.168;20.878;2024-03-23T11:57:57;98876.70;;;18.24;65.66
50484;BME280;36409;52.168;20.878;2024-03-23T12:00:30;98880.30;;;18.36;65.44
50484;BME280;36409;52.168;20.878;2024-03-23T12:03:05;98873.33;;;18.35;65.01
50484;BME280;36409;52.168;20.878;2024-03-23T12:05:38;98871.10;;;18.42;64.78
50484;BME280;36409;52.168;20.878;2024-03-23T12:08:21;98865.85;;;18.29;64.49
50484;BME280;36409;52.168;20.878;2024-03-23T12:11:06;98865.54;;;18.08;63.71
50484;BME280;36409;52.168;20.878;2024-03-23T12:13:39;98856.55;;;17.84;63.53
50484;BME280;36409;52.168;20.878;2024-03-23T12:16:13;98856.83;;;17.67;63.47
50484;BME280;36409;52.168;20.878;2024-03-23T12:18:47;98853.33;;;17.53;64.01
50484;BME280;36409;52.168;20.878;2024-03-23T12:21:19;98843.91;;;17.36;63.45
50484;BME280;36409;52.168;20.878;2024-03-23T12:23:53;98839.11;;;17.16;63.33
50484;BME280;36409;52.168;20.878;2024-03-23T12:26:29;98834.00;;;17.00;63.40
50484;BME280;36409;52.168;20.878;2024-03-23T12:29:06;98830.66;;;16.83;63.36
50484;BME280;36409;52.168;20.878;2024-03-23T12:31:42;98832.00;;;16.61;62.97
50484;BME280;36409;52.168;20.878;2024-03-23T12:34:22;98820.19;;;16.40;63.12
50484;BME280;36409;52.168;20.878;2024-03-23T12:36:54;98820.41;;;16.22;63.07
50484;BME280;36409;52.168;20.878;2024-03-23T12:39:29;98816.02;;;16.08;62.87
50484;BME280;36409;52.168;20.878;2024-03-23T12:42:02;98818.53;;;15.95;63.28
50484;BME280;36409;52.168;20.878;2024-03-23T12:44:36;98802.48;;;15.85;63.41
50484;BME280;36409;52.168;20.878;2024-03-23T12:47:06;98803.27;;;15.71;62.92
50484;BME280;36409;52.168;20.878;2024-03-23T12:49:38;98794.23;;;15.61;63.37
50484;BME280;36409;52.168;20.878;2024-03-23T12:52:09;98785.52;;;15.60;62.89
50484;BME280;36409;52.168;20.878;2024-03-23T12:54:43;98787.77;;;15.67;63.49
50484;BME280;36409;52.168;20.878;2024-03-23T12:57:15;98775.84;;;15.75;63.27
50484;BME280;36409;52.168;20.878;2024-03-23T12:59:46;98771.06;;;15.82;63.14
50484;BME280;36409;52.168;20.878;2024-03-23T13:02:22;98763.02;;;15.85;62.64
50484;BME280;36409;52.168;20.878;2024-03-23T13:04:55;98755.12;;;15.85;63.36
50484;BME280;36409;52.168;20.878;2024-03-23T13:07:26;98757.80;;;15.84;63.37
50484;BME280;36409;52.168;20.878;2024-03-23T13:09:59;98751.23;;;15.77;63.14
50484;BME280;36409;52.168;20.878;2024-03-23T13:12:30;98741.19;;;15.69;63.11
50484;BME280;36409;52.168;20.878;2024-03-23T13:15:15;98736.39;;;15.61;62.53
50484;BME280;36409;52.168;20.878;2024-03-23T13:17:57;98730.86;;;15.51;62.72
50484;BME280;36409;52.168;20.878;2024-03-23T13:20:29;98727.58;;;15.48;62.51
50484;BME280;36409;52.168;20.878;2024-03-23T13:23:05;98733.84;;;15.45;62.26
50484;BME280;36409;52.168;20.878;2024-03-23T13:25:57;98724.27;;;15.44;62.54
50484;BME280;36409;52.168;20.878;2024-03-23T13:31:24;98702.58;;;15.40;62.65
50484;BME280;36409;52.168;20.878;2024-03-23T13:33:56;98701.82;;;15.38;62.62
50484;BME280;36409;52.168;20.878;2024-03-23T13:36:27;98690.76;;;15.33;62.16
50484;BME280;36409;52.168;20.878;2024-03-23T13:38:59;98669.80;;;15.32;62.26
50484;BME280;36409;52.168;20.878;2024-03-23T13:41:31;98674.98;;;15.33;62.24
50484;BME280;36409;52.168;20.878;2024-03-23T13:44:15;98681.08;;;15.34;62.43
50484;BME280;36409;52.168;20.878;2024-03-23T13:46:49;98673.30;;;15.32;62.08
50484;BME280;36409;52.168;20.878;2024-03-23T13:49:28;98669.08;;;15.29;62.26
50484;BME280;36409;52.168;20.878;2024-03-23T13:52:00;98667.56;;;15.25;62.08
50484;BME280;36409;52.168;20.878;2024-03-23T13:54:31;98658.09;;;15.23;61.92
50484;BME280;36409;52.168;20.878;2024-03-23T13:57:03;98664.45;;;15.19;61.99
50484;BME280;36409;52.168;20.878;2024-03-23T13:59:38;98663.04;;;15.13;62.37
50484;BME280;36409;52.168;20.878;2024-03-23T14:02:10;98668.47;;;15.10;61.97
50484;BME280;36409;52.168;20.878;2024-03-23T14:04:42;98653.84;;;15.06;62.38
50484;BME280;36409;52.168;20.878;2024-03-23T14:07:13;98652.33;;;15.02;62.26
50484;BME280;36409;52.168;20.878;2024-03-23T14:09:47;98642.93;;;14.97;61.77
50484;BME280;36409;52.168;20.878;2024-03-23T14:12:25;98640.69;;;14.91;62.08
50484;BME280;36409;52.168;20.878;2024-03-23T14:14:56;98630.35;;;14.88;62.28
50484;BME280;36409;52.168;20.878;2024-03-23T14:17:28;98620.13;;;14.83;61.81
50484;BME280;36409;52.168;20.878;2024-03-23T14:19:59;98602.88;;;14.79;62.32
50484;BME280;36409;52.168;20.878;2024-03-23T14:22:31;98596.87;;;14.77;61.81
50484;BME280;36409;52.168;20.878;2024-03-23T14:25:05;98597.80;;;14.76;62.36
50484;BME280;36409;52.168;20.878;2024-03-23T14:27:37;98597.97;;;14.73;61.79
50484;BME280;36409;52.168;20.878;2024-03-23T14:30:10;98598.15;;;14.70;62.22